Time;durP1;ratioP1;P1;durP2;ratioP2;P2;SDS_P1;SDS_P2;PMS_P1;PMS_P2;Temp;Humidity;BMP_temperature;BMP_pressure;BME280_temperature;BME280_humidity;BME280_pressure;Samples;Min_cycle;Max_cycle;Signal;HPM_P1;HPM_P2
2021/08/31 00:00:55;;;;;;;5.10;4.68;;;;;;;;;;4900114;29;20199;-87
2021/08/31 00:03:23;;;;;;;5.25;4.75;;;;;;;;;;4899221;29;20231;-85
2021/08/31 00:05:50;;;;;;;5.78;4.50;;;;;;;;;;4899900;29;20191;-87
2021/08/31 00:08:18;;;;;;;5.13;4.63;;;;;;;;;;4901415;29;20314;-85
2021/08/31 00:10:45;;;;;;;5.18;4.68;;;;;;;;;;4902327;29;20195;-85
2021/08/31 00:13:13;;;;;;;5.20;4.75;;;;;;;;;;4901657;29;20184;-86
2021/08/31 00:15:41;;;;;;;6.18;5.57;;;;;;;;;;4899167;29;20214;-88
2021/08/31 00:18:09;;;;;;;4.95;4.45;;;;;;;;;;4904820;23;20908;-85
2021/08/31 00:20:37;;;;;;;4.82;4.43;;;;;;;;;;4879852;29;20214;-84
2021/08/31 00:23:05;;;;;;;5.45;4.47;;;;;;;;;;4880363;29;20211;-84
2021/08/31 00:25:32;;;;;;;5.28;4.78;;;;;;;;;;4879596;29;20725;-84
2021/08/31 00:28:00;;;;;;;4.15;3.75;;;;;;;;;;4887980;29;20219;-84
2021/08/31 00:30:27;;;;;;;6.95;3.92;;;;;;;;;;4898266;29;20594;-84
2021/08/31 00:32:56;;;;;;;4.10;3.70;;;;;;;;;;4897836;29;20187;-84
2021/08/31 00:35:24;;;;;;;6.00;5.13;;;;;;;;;;4898243;29;20211;-84
2021/08/31 00:37:52;;;;;;;5.50;5.07;;;;;;;;;;4897768;29;20219;-84
2021/08/31 00:40:20;;;;;;;6.45;4.70;;;;;;;;;;4897506;29;20217;-84
2021/08/31 00:42:48;;;;;;;5.13;4.60;;;;;;;;;;4897661;29;20188;-85
2021/08/31 00:45:15;;;;;;;4.65;4.18;;;;;;;;;;4897270;29;20219;-86
2021/08/31 00:47:43;;;;;;;4.80;4.30;;;;;;;;;;4887357;29;20231;-86
2021/08/31 00:50:13;;;;;;;5.72;4.30;;;;;;;;;;4884762;29;20637;-83
2021/08/31 00:52:41;;;;;;;4.38;3.97;;;;;;;;;;4897484;29;20252;-86
2021/08/31 00:55:10;;;;;;;5.28;4.05;;;;;;;;;;4897168;29;20207;-84
2021/08/31 00:57:38;;;;;;;4.72;4.00;;;;;;;;;;4898274;29;20223;-84
2021/08/31 01:00:09;;;;;;;5.20;4.80;;;;;;;;;;4897156;29;20293;-83
2021/08/31 01:02:37;;;;;;;4.68;4.28;;;;;;;;;;4879532;29;20192;-84
2021/08/31 01:05:06;;;;;;;6.60;4.45;;;;;;;;;;4879013;29;20231;-86
2021/08/31 01:07:35;;;;;;;5.53;4.93;;;;;;;;;;4879745;29;20608;-86
2021/08/31 01:10:05;;;;;;;4.85;4.45;;;;;;;;;;4879468;29;20207;-83
2021/08/31 01:12:33;;;;;;;4.85;4.43;;;;;;;;;;4878644;29;20214;-86
2021/08/31 01:15:00;;;;;;;4.65;4.20;;;;;;;;;;4878727;29;20714;-83
2021/08/31 01:17:29;;;;;;;4.53;4.13;;;;;;;;;;4878779;29;20741;-86
2021/08/31 01:19:58;;;;;;;4.47;4.07;;;;;;;;;;4879736;29;21254;-85
2021/08/31 01:22:25;;;;;;;5.35;4.85;;;;;;;;;;4879070;29;20283;-85
2021/08/31 01:24:57;;;;;;;4.97;4.40;;;;;;;;;;4896906;29;20298;-85
2021/08/31 01:27:27;;;;;;;6.03;4.32;;;;;;;;;;4897934;29;20227;-86
2021/08/31 01:29:55;;;;;;;5.03;4.45;;;;;;;;;;4897715;29;20368;-85
2021/08/31 01:32:22;;;;;;;5.28;4.88;;;;;;;;;;4898181;29;20191;-85
2021/08/31 01:34:50;;;;;;;4.80;4.35;;;;;;;;;;4896988;29;20290;-87
2021/08/31 01:37:17;;;;;;;4.63;3.85;;;;;;;;;;4897766;29;20269;-85
2021/08/31 01:39:45;;;;;;;5.32;4.93;;;;;;;;;;4880842;29;20223;-85
2021/08/31 01:42:14;;;;;;;5.80;4.72;;;;;;;;;;4879238;29;20195;-86
2021/08/31 01:44:41;;;;;;;4.90;4.40;;;;;;;;;;4878521;29;20211;-86
2021/08/31 01:47:12;;;;;;;4.20;3.78;;;;;;;;;;4878999;29;20228;-85
2021/08/31 01:49:39;;;;;;;5.28;4.78;;;;;;;;;;4878960;29;20211;-86
2021/08/31 01:52:07;;;;;;;4.78;4.35;;;;;;;;;;4879746;29;20203;-85
2021/08/31 01:54:35;;;;;;;4.50;4.15;;;;;;;;;;4879173;29;20218;-86
2021/08/31 01:57:03;;;;;;;6.40;5.45;;;;;;;;;;4879174;29;20239;-86
2021/08/31 01:59:32;;;;;;;5.00;4.57;;;;;;;;;;4879266;29;20192;-85
2021/08/31 02:02:00;;;;;;;4.78;4.28;;;;;;;;;;4879254;29;20192;-86
2021/08/31 02:04:27;;;;;;;6.15;5.57;;;;;;;;;;4878645;29;20215;-86
2021/08/31 02:06:55;;;;;;;4.43;4.10;;;;;;;;;;4879074;29;20224;-86
2021/08/31 02:09:22;;;;;;;4.88;4.22;;;;;;;;;;4878769;29;20212;-86
2021/08/31 02:11:50;;;;;;;4.80;4.40;;;;;;;;;;4879048;29;20212;-86
2021/08/31 02:14:18;;;;;;;4.95;4.45;;;;;;;;;;4882052;29;20208;-86
2021/08/31 02:16:47;;;;;;;4.20;3.80;;;;;;;;;;4882203;29;20231;-85
2021/08/31 02:19:14;;;;;;;4.43;3.85;;;;;;;;;;4882087;29;20214;-86
2021/08/31 02:21:42;;;;;;;4.90;4.05;;;;;;;;;;4882117;29;20192;-86
2021/08/31 02:24:10;;;;;;;4.90;4.43;;;;;;;;;;4882181;29;20185;-85
2021/08/31 02:26:38;;;;;;;4.13;3.72;;;;;;;;;;4881846;29;20279;-85
2021/08/31 02:29:06;;;;;;;4.45;4.05;;;;;;;;;;4882021;29;20651;-85
2021/08/31 02:31:34;;;;;;;4.35;3.90;;;;;;;;;;4882605;29;20279;-86
2021/08/31 02:34:02;;;;;;;4.25;3.92;;;;;;;;;;4881452;29;20206;-86
2021/08/31 02:36:30;;;;;;;4.75;4.15;;;;;;;;;;4881527;29;20207;-85
2021/08/31 02:38:57;;;;;;;3.90;3.60;;;;;;;;;;4881770;29;20196;-85
2021/08/31 02:41:26;;;;;;;5.22;4.20;;;;;;;;;;4881033;29;20560;-87
2021/08/31 02:43:54;;;;;;;4.60;4.13;;;;;;;;;;4881070;29;20575;-85
2021/08/31 02:46:22;;;;;;;6.88;4.72;;;;;;;;;;4880952;29;20718;-86
2021/08/31 02:48:49;;;;;;;4.72;4.32;;;;;;;;;;4881721;29;20208;-86
2021/08/31 02:51:19;;;;;;;4.22;3.90;;;;;;;;;;4881651;29;20714;-85
2021/08/31 02:53:48;;;;;;;4.78;4.30;;;;;;;;;;4881212;29;20663;-86
2021/08/31 02:56:15;;;;;;;4.43;4.03;;;;;;;;;;4881074;29;20204;-85
2021/08/31 02:58:44;;;;;;;6.68;4.18;;;;;;;;;;4881952;29;20235;-86
2021/08/31 03:01:29;;;;;;;4.93;4.30;;;;;;;;;;4881869;29;20800;-86
2021/08/31 03:03:56;;;;;;;4.18;3.55;;;;;;;;;;4881123;29;20560;-85
2021/08/31 03:06:26;;;;;;;4.47;3.83;;;;;;;;;;4881010;29;20249;-85
2021/08/31 03:08:55;;;;;;;4.10;3.80;;;;;;;;;;4881261;29;20212;-85
2021/08/31 03:11:23;;;;;;;5.05;4.03;;;;;;;;;;4880672;29;20211;-86
2021/08/31 03:13:50;;;;;;;4.47;4.07;;;;;;;;;;4881468;29;20188;-86
2021/08/31 03:16:18;;;;;;;5.05;4.63;;;;;;;;;;4881458;29;20196;-85
2021/08/31 03:18:46;;;;;;;5.57;5.03;;;;;;;;;;4881175;29;20324;-86
2021/08/31 03:21:14;;;;;;;4.40;4.10;;;;;;;;;;4881196;29;20655;-85
2021/08/31 03:23:43;;;;;;;5.28;4.53;;;;;;;;;;4881178;29;20196;-85
2021/08/31 03:26:10;;;;;;;5.40;4.90;;;;;;;;;;4879878;29;20236;-85
2021/08/31 03:28:38;;;;;;;4.95;4.32;;;;;;;;;;4881002;29;20234;-87
2021/08/31 03:31:05;;;;;;;4.57;4.18;;;;;;;;;;4881677;29;20211;-85
2021/08/31 03:33:33;;;;;;;7.43;4.95;;;;;;;;;;4880464;29;20215;-85
2021/08/31 03:36:04;;;;;;;5.10;4.60;;;;;;;;;;4880373;29;20195;-86
2021/08/31 03:38:31;;;;;;;5.20;4.70;;;;;;;;;;4881187;29;20231;-86
2021/08/31 03:41:00;;;;;;;5.70;5.10;;;;;;;;;;4881054;29;20670;-85
2021/08/31 03:43:28;;;;;;;5.28;4.88;;;;;;;;;;4880445;29;20196;-85
2021/08/31 03:45:55;;;;;;;5.35;3.97;;;;;;;;;;4880621;29;20279;-85
2021/08/31 03:48:23;;;;;;;4.53;4.13;;;;;;;;;;4881079;29;20220;-85
2021/08/31 03:50:50;;;;;;;4.85;4.35;;;;;;;;;;4880083;29;20577;-85
2021/08/31 03:53:19;;;;;;;4.65;4.25;;;;;;;;;;4880327;29;20251;-86
2021/08/31 03:55:47;;;;;;;3.92;3.53;;;;;;;;;;4879912;29;20211;-86
2021/08/31 03:58:16;;;;;;;4.65;3.80;;;;;;;;;;4880669;29;20299;-86
2021/08/31 04:00:43;;;;;;;4.50;4.10;;;;;;;;;;4881043;29;20192;-86
2021/08/31 04:03:11;;;;;;;4.38;4.00;;;;;;;;;;4880408;29;20214;-86
2021/08/31 04:05:38;;;;;;;4.18;3.80;;;;;;;;;;4879478;29;20239;-85
2021/08/31 04:08:07;;;;;;;3.60;3.30;;;;;;;;;;4880644;29;20310;-86
2021/08/31 04:10:35;;;;;;;4.53;4.13;;;;;;;;;;4880537;29;20230;-86
2021/08/31 04:13:03;;;;;;;4.43;3.20;;;;;;;;;;4880654;29;20219;-85
2021/08/31 04:15:32;;;;;;;4.25;3.95;;;;;;;;;;4879825;29;20247;-86
2021/08/31 04:18:00;;;;;;;4.45;4.05;;;;;;;;;;4879206;29;20709;-85
2021/08/31 04:20:28;;;;;;;4.13;3.72;;;;;;;;;;4880538;29;20280;-86
2021/08/31 04:22:55;;;;;;;5.25;4.38;;;;;;;;;;4880298;29;20219;-85
2021/08/31 04:25:23;;;;;;;4.78;4.30;;;;;;;;;;4879961;29;20204;-86
2021/08/31 04:27:51;;;;;;;5.50;4.40;;;;;;;;;;4879615;29;20232;-86
2021/08/31 04:30:18;;;;;;;4.93;4.35;;;;;;;;;;4879885;29;20255;-85
2021/08/31 04:32:47;;;;;;;4.78;3.92;;;;;;;;;;4880090;29;20784;-86
2021/08/31 04:35:15;;;;;;;4.03;3.72;;;;;;;;;;4879968;29;20200;-86
2021/08/31 04:37:42;;;;;;;4.93;4.43;;;;;;;;;;4879283;29;20306;-86
2021/08/31 04:40:11;;;;;;;4.03;3.67;;;;;;;;;;4880034;29;20237;-86
2021/08/31 04:42:39;;;;;;;4.63;4.22;;;;;;;;;;4880506;29;20190;-85
2021/08/31 04:45:09;;;;;;;4.18;3.78;;;;;;;;;;4879868;29;20271;-86
2021/08/31 04:47:36;;;;;;;5.53;4.50;;;;;;;;;;4880278;29;20242;-86
2021/08/31 04:50:06;;;;;;;4.25;3.85;;;;;;;;;;4880750;29;20212;-85
2021/08/31 04:52:34;;;;;;;4.22;3.83;;;;;;;;;;4880538;29;20244;-85
2021/08/31 04:55:01;;;;;;;4.05;3.63;;;;;;;;;;4879948;29;20214;-86
2021/08/31 04:57:29;;;;;;;4.68;4.28;;;;;;;;;;4879482;29;20223;-86
2021/08/31 04:59:56;;;;;;;4.30;3.90;;;;;;;;;;4880202;29;20564;-85
2021/08/31 05:02:25;;;;;;;4.70;4.28;;;;;;;;;;4879341;29;20231;-86
2021/08/31 05:04:52;;;;;;;4.88;3.95;;;;;;;;;;4879585;29;20298;-86
2021/08/31 05:07:21;;;;;;;5.47;4.85;;;;;;;;;;4879698;29;20315;-86
2021/08/31 05:09:49;;;;;;;6.05;3.92;;;;;;;;;;4880281;29;20210;-86
2021/08/31 05:12:17;;;;;;;9.70;5.25;;;;;;;;;;4879852;29;20188;-85
2021/08/31 05:14:45;;;;;;;5.05;4.20;;;;;;;;;;4879585;29;20282;-86
2021/08/31 05:17:12;;;;;;;8.68;4.35;;;;;;;;;;4879314;29;20240;-85
2021/08/31 05:19:42;;;;;;;4.65;4.25;;;;;;;;;;4879814;29;20199;-87
2021/08/31 05:22:10;;;;;;;4.53;3.95;;;;;;;;;;4880216;29;20204;-86
2021/08/31 05:24:39;;;;;;;5.28;4.10;;;;;;;;;;4880773;29;20575;-85
2021/08/31 05:27:07;;;;;;;4.85;4.38;;;;;;;;;;4880794;29;20283;-86
2021/08/31 05:29:36;;;;;;;4.80;3.75;;;;;;;;;;4880853;29;20682;-85
2021/08/31 05:32:04;;;;;;;4.65;4.25;;;;;;;;;;4880568;29;20191;-86
2021/08/31 05:34:31;;;;;;;6.07;5.40;;;;;;;;;;4879906;29;20212;-86
2021/08/31 05:37:01;;;;;;;6.20;4.88;;;;;;;;;;4880105;29;20227;-86
2021/08/31 05:39:33;;;;;;;5.57;5.05;;;;;;;;;;4880538;29;20180;-86
2021/08/31 05:42:04;;;;;;;5.18;4.78;;;;;;;;;;4879932;29;20192;-86
2021/08/31 05:44:31;;;;;;;6.22;5.50;;;;;;;;;;4880076;29;20280;-86
2021/08/31 05:46:59;;;;;;;5.68;5.18;;;;;;;;;;4880496;29;20232;-86
2021/08/31 05:49:26;;;;;;;6.18;5.57;;;;;;;;;;4896147;29;20282;-86
2021/08/31 05:51:55;;;;;;;6.82;6.22;;;;;;;;;;4901942;29;20195;-87
2021/08/31 05:54:25;;;;;;;7.55;6.75;;;;;;;;;;4902461;29;20188;-86
2021/08/31 05:56:53;;;;;;;7.57;6.88;;;;;;;;;;4901961;29;20227;-86
2021/08/31 05:59:23;;;;;;;7.72;6.97;;;;;;;;;;4901818;29;20199;-86
2021/08/31 06:01:51;;;;;;;7.88;6.55;;;;;;;;;;4902680;29;20233;-86
2021/08/31 06:04:22;;;;;;;7.53;6.07;;;;;;;;;;4902488;29;20211;-86
2021/08/31 06:06:49;;;;;;;8.02;7.22;;;;;;;;;;4902715;29;20254;-86
2021/08/31 06:09:17;;;;;;;8.57;6.38;;;;;;;;;;4901412;29;20183;-86
2021/08/31 06:11:44;;;;;;;7.18;6.47;;;;;;;;;;4903195;29;20213;-86
2021/08/31 06:14:12;;;;;;;6.78;6.18;;;;;;;;;;4901801;29;20235;-85
2021/08/31 06:16:44;;;;;;;7.68;5.63;;;;;;;;;;4900473;29;20264;-86
2021/08/31 06:19:11;;;;;;;5.40;4.90;;;;;;;;;;4882498;29;20199;-85
2021/08/31 06:21:39;;;;;;;6.18;5.57;;;;;;;;;;4882415;29;20190;-85
2021/08/31 06:24:06;;;;;;;7.28;6.57;;;;;;;;;;4882390;29;20782;-85
2021/08/31 06:26:34;;;;;;;7.30;6.60;;;;;;;;;;4881913;29;20743;-86
2021/08/31 06:29:01;;;;;;;7.70;6.90;;;;;;;;;;4883749;29;20236;-85
2021/08/31 06:31:29;;;;;;;7.60;6.90;;;;;;;;;;4884763;29;20211;-84
2021/08/31 06:33:58;;;;;;;7.22;6.53;;;;;;;;;;4883909;29;20248;-86
2021/08/31 06:36:25;;;;;;;8.20;7.40;;;;;;;;;;4883425;29;20658;-86
2021/08/31 06:38:53;;;;;;;7.63;6.90;;;;;;;;;;4883299;29;20207;-84
2021/08/31 06:41:20;;;;;;;8.23;7.43;;;;;;;;;;4883745;29;20193;-83
2021/08/31 06:43:48;;;;;;;8.07;7.28;;;;;;;;;;4883821;29;20275;-83
2021/08/31 06:46:15;;;;;;;8.07;7.30;;;;;;;;;;4884108;29;20204;-84
2021/08/31 06:48:43;;;;;;;11.70;8.88;;;;;;;;;;4883957;29;20257;-86
2021/08/31 06:51:14;;;;;;;9.52;8.02;;;;;;;;;;4884486;29;20188;-86
2021/08/31 06:53:43;;;;;;;8.45;7.60;;;;;;;;;;4884236;29;20202;-86
2021/08/31 06:56:11;;;;;;;8.02;7.32;;;;;;;;;;4884022;29;20180;-85
2021/08/31 06:58:38;;;;;;;9.65;8.73;;;;;;;;;;4883252;29;20224;-85
2021/08/31 07:01:06;;;;;;;8.07;7.22;;;;;;;;;;4883791;29;20270;-84
2021/08/31 07:03:34;;;;;;;11.07;8.45;;;;;;;;;;4885710;29;20210;-86
2021/08/31 07:06:01;;;;;;;8.88;7.97;;;;;;;;;;4884145;29;20202;-86
2021/08/31 07:08:30;;;;;;;9.52;7.75;;;;;;;;;;4884052;29;20228;-85
2021/08/31 07:10:57;;;;;;;7.25;6.50;;;;;;;;;;4888045;29;20200;-86
2021/08/31 07:13:25;;;;;;;7.82;7.13;;;;;;;;;;4869097;29;20200;-86
2021/08/31 07:15:53;;;;;;;7.30;6.65;;;;;;;;;;4883460;29;20231;-85
2021/08/31 07:18:20;;;;;;;6.95;6.35;;;;;;;;;;4898177;29;20231;-85
2021/08/31 07:20:48;;;;;;;8.00;7.28;;;;;;;;;;4901997;29;20587;-84
2021/08/31 07:23:15;;;;;;;6.70;5.95;;;;;;;;;;4883603;29;20206;-86
2021/08/31 07:25:46;;;;;;;7.05;6.45;;;;;;;;;;4883644;29;20195;-85
2021/08/31 07:28:14;;;;;;;8.35;7.47;;;;;;;;;;4909530;29;20226;-84
2021/08/31 07:30:41;;;;;;;7.32;6.65;;;;;;;;;;4909723;29;20202;-86
2021/08/31 07:33:10;;;;;;;7.93;6.85;;;;;;;;;;4904983;29;20207;-84
2021/08/31 07:35:38;;;;;;;7.53;6.82;;;;;;;;;;4901370;29;20227;-85
2021/08/31 07:38:06;;;;;;;7.90;7.10;;;;;;;;;;4902290;29;20223;-85
2021/08/31 07:40:34;;;;;;;8.32;7.53;;;;;;;;;;4903831;29;20187;-86
2021/08/31 07:43:03;;;;;;;9.13;8.23;;;;;;;;;;4914740;29;20202;-86
2021/08/31 07:45:31;;;;;;;7.95;7.18;;;;;;;;;;4922341;29;20201;-86
2021/08/31 07:47:58;;;;;;;6.05;5.20;;;;;;;;;;4922166;29;20233;-86
2021/08/31 07:50:26;;;;;;;7.75;7.03;;;;;;;;;;4923059;29;20190;-85
2021/08/31 07:52:53;;;;;;;8.43;7.60;;;;;;;;;;4922050;29;20212;-86
2021/08/31 07:55:21;;;;;;;7.97;7.22;;;;;;;;;;4919935;29;20195;-87
2021/08/31 07:57:49;;;;;;;8.63;6.90;;;;;;;;;;4918878;29;20230;-86
2021/08/31 08:00:19;;;;;;;8.02;7.22;;;;;;;;;;4918511;29;20198;-89
2021/08/31 08:02:46;;;;;;;8.30;7.50;;;;;;;;;;4911834;29;20205;-86
2021/08/31 08:05:14;;;;;;;7.07;6.38;;;;;;;;;;4902322;29;20203;-86
2021/08/31 08:07:41;;;;;;;7.82;7.13;;;;;;;;;;4900428;29;20705;-86
2021/08/31 08:10:10;;;;;;;7.32;6.53;;;;;;;;;;4901127;29;20208;-86
2021/08/31 08:12:38;;;;;;;8.90;6.82;;;;;;;;;;4900124;29;20684;-86
2021/08/31 08:15:07;;;;;;;6.70;6.10;;;;;;;;;;4900904;29;20199;-86
2021/08/31 08:17:36;;;;;;;8.40;7.65;;;;;;;;;;4900971;29;20235;-86
2021/08/31 08:20:04;;;;;;;8.27;6.97;;;;;;;;;;4899712;29;20191;-86
2021/08/31 08:22:31;;;;;;;7.90;6.35;;;;;;;;;;4900867;29;20191;-85
2021/08/31 08:28:40;;;;;;;6.32;5.65;;;;;;;;;;4839093;29;20276;-86
2021/08/31 08:31:08;;;;;;;6.57;6.00;;;;;;;;;;4900434;29;20195;-86
2021/08/31 08:33:36;;;;;;;6.90;6.22;;;;;;;;;;4899591;29;20225;-85
2021/08/31 08:36:06;;;;;;;7.25;6.45;;;;;;;;;;4882347;29;20212;-87
2021/08/31 08:38:34;;;;;;;6.68;6.07;;;;;;;;;;4881627;29;20630;-86
2021/08/31 08:41:05;;;;;;;8.80;7.53;;;;;;;;;;4883724;29;20187;-85
2021/08/31 08:43:34;;;;;;;6.47;5.88;;;;;;;;;;4884657;29;20663;-86
2021/08/31 08:46:06;;;;;;;7.20;6.28;;;;;;;;;;4884409;29;20192;-86
2021/08/31 08:48:34;;;;;;;7.15;6.25;;;;;;;;;;4884420;29;20234;-86
2021/08/31 08:51:04;;;;;;;6.80;6.20;;;;;;;;;;4883747;29;20275;-86
2021/08/31 08:53:33;;;;;;;7.22;6.50;;;;;;;;;;4896638;29;20207;-85
2021/08/31 08:56:01;;;;;;;8.10;7.30;;;;;;;;;;4902367;29;20195;-85
2021/08/31 08:58:30;;;;;;;8.05;6.60;;;;;;;;;;4902790;29;20227;-85
2021/08/31 09:01:02;;;;;;;6.65;6.05;;;;;;;;;;4901039;29;20592;-86
2021/08/31 09:03:33;;;;;;;7.05;6.25;;;;;;;;;;4899768;29;20302;-87
2021/08/31 09:06:16;;;;;;;6.10;5.50;;;;;;;;;;4899648;29;20196;-86
2021/08/31 09:08:56;;;;;;;6.60;6.00;;;;;;;;;;4900238;29;20280;-86
2021/08/31 09:11:27;;;;;;;7.68;6.57;;;;;;;;;;4900947;29;20298;-86
2021/08/31 09:14:22;;;;;;;6.28;5.70;;;;;;;;;;4900252;29;20192;-87
2021/08/31 09:16:52;;;;;;;6.60;6.00;;;;;;;;;;4899936;29;20239;-86
2021/08/31 09:19:31;;;;;;;5.93;5.32;;;;;;;;;;4899980;29;20290;-87
2021/08/31 09:22:13;;;;;;;6.38;5.35;;;;;;;;;;4900288;29;20262;-86
2021/08/31 09:24:42;;;;;;;6.38;5.20;;;;;;;;;;4905151;29;20206;-87
2021/08/31 09:27:10;;;;;;;6.85;6.15;;;;;;;;;;4904664;29;20234;-86
2021/08/31 09:29:40;;;;;;;7.68;5.55;;;;;;;;;;4904539;29;20641;-85
2021/08/31 09:32:13;;;;;;;5.10;4.60;;;;;;;;;;4904618;29;20203;-85
2021/08/31 09:34:45;;;;;;;5.85;5.35;;;;;;;;;;4904330;29;20209;-86
2021/08/31 09:37:34;;;;;;;5.85;5.30;;;;;;;;;;4904524;29;20229;-85
2021/08/31 09:40:15;;;;;;;5.38;4.88;;;;;;;;;;4904202;29;20227;-86
2021/08/31 09:43:03;;;;;;;5.10;4.63;;;;;;;;;;4903897;29;20656;-85
2021/08/31 09:45:34;;;;;;;5.40;4.90;;;;;;;;;;4904358;29;20197;-86
2021/08/31 09:48:03;;;;;;;6.15;4.88;;;;;;;;;;4904053;29;20792;-86
2021/08/31 09:50:39;;;;;;;4.60;4.20;;;;;;;;;;4904470;29;20217;-86
2021/08/31 09:53:15;;;;;;;4.63;4.22;;;;;;;;;;4904395;29;20190;-86
2021/08/31 09:55:46;;;;;;;4.25;3.85;;;;;;;;;;4904470;29;20278;-87
2021/08/31 09:58:21;;;;;;;5.18;4.78;;;;;;;;;;4904122;29;20804;-85
2021/08/31 10:00:49;;;;;;;5.85;5.28;;;;;;;;;;4903993;29;20199;-86
2021/08/31 10:03:18;;;;;;;5.53;4.80;;;;;;;;;;4904076;29;20183;-86
2021/08/31 10:05:49;;;;;;;6.30;5.75;;;;;;;;;;4903988;29;20203;-87
2021/08/31 10:08:18;;;;;;;7.65;6.95;;;;;;;;;;4903978;29;20221;-86
2021/08/31 10:10:48;;;;;;;6.55;5.80;;;;;;;;;;4904213;29;20226;-87
2021/08/31 10:13:18;;;;;;;6.00;5.50;;;;;;;;;;4904204;29;20187;-86
2021/08/31 10:15:48;;;;;;;6.13;5.53;;;;;;;;;;4903899;29;20198;-86
2021/08/31 10:18:18;;;;;;;7.28;6.25;;;;;;;;;;4903812;29;20227;-87
2021/08/31 10:20:50;;;;;;;7.07;6.38;;;;;;;;;;4903637;29;20213;-86
2021/08/31 10:23:23;;;;;;;6.80;5.90;;;;;;;;;;4903830;29;20206;-86
2021/08/31 10:25:51;;;;;;;6.88;5.63;;;;;;;;;;4904148;29;20191;-84
2021/08/31 10:28:25;;;;;;;6.28;5.55;;;;;;;;;;4903509;29;20227;-86
2021/08/31 10:30:54;;;;;;;5.75;5.25;;;;;;;;;;4904008;29;20220;-84
2021/08/31 10:33:41;;;;;;;6.32;5.35;;;;;;;;;;4903436;29;20194;-85
2021/08/31 10:36:12;;;;;;;6.65;5.57;;;;;;;;;;4900696;29;20250;-85
2021/08/31 10:38:59;;;;;;;5.60;5.10;;;;;;;;;;4900510;29;20227;-85
2021/08/31 10:41:48;;;;;;;5.60;5.10;;;;;;;;;;4901255;29;20215;-85
2021/08/31 10:44:45;;;;;;;5.72;5.20;;;;;;;;;;4900863;29;20195;-85
2021/08/31 10:47:32;;;;;;;5.68;5.18;;;;;;;;;;4895907;29;20231;-86
2021/08/31 10:50:20;;;;;;;5.78;5.28;;;;;;;;;;4900880;29;20219;-83
2021/08/31 10:53:07;;;;;;;5.68;5.18;;;;;;;;;;4905448;29;20198;-85
2021/08/31 10:55:47;;;;;;;5.47;4.97;;;;;;;;;;4920366;29;20187;-85
2021/08/31 10:58:47;;;;;;;5.43;4.93;;;;;;;;;;4919777;29;20255;-85
2021/08/31 11:01:17;;;;;;;5.75;5.22;;;;;;;;;;4919759;29;20654;-85
2021/08/31 11:03:46;;;;;;;6.05;5.55;;;;;;;;;;4905000;29;20282;-85
2021/08/31 11:06:33;;;;;;;6.13;5.63;;;;;;;;;;4884066;29;20546;-85
2021/08/31 11:09:24;;;;;;;7.68;6.38;;;;;;;;;;4882457;29;20662;-84
2021/08/31 11:12:04;;;;;;;7.75;6.55;;;;;;;;;;4878821;29;20228;-85
2021/08/31 11:14:58;;;;;;;6.75;6.07;;;;;;;;;;4880970;29;20555;-86
2021/08/31 11:17:39;;;;;;;5.50;5.00;;;;;;;;;;4880486;29;20240;-85
2021/08/31 11:20:24;;;;;;;5.85;5.35;;;;;;;;;;4882018;29;20191;-86
2021/08/31 11:22:54;;;;;;;6.07;5.53;;;;;;;;;;4899524;29;20192;-86
2021/08/31 11:25:29;;;;;;;7.10;6.07;;;;;;;;;;4899836;29;20191;-86
2021/08/31 11:27:59;;;;;;;6.18;5.65;;;;;;;;;;4899497;29;20256;-86
2021/08/31 11:30:28;;;;;;;5.30;4.80;;;;;;;;;;4899392;29;20214;-85
2021/08/31 11:33:18;;;;;;;6.13;5.60;;;;;;;;;;4899690;29;20207;-85
2021/08/31 11:35:46;;;;;;;6.10;5.50;;;;;;;;;;4899711;29;20220;-85
2021/08/31 11:38:13;;;;;;;5.80;5.25;;;;;;;;;;4900544;29;20708;-84
2021/08/31 11:40:42;;;;;;;5.55;5.05;;;;;;;;;;4899165;29;20207;-84
2021/08/31 11:43:10;;;;;;;4.93;4.53;;;;;;;;;;4899462;29;20251;-86
2021/08/31 11:45:40;;;;;;;6.70;5.32;;;;;;;;;;4898628;29;20215;-85
2021/08/31 11:48:09;;;;;;;5.70;5.20;;;;;;;;;;4903278;29;20222;-87
2021/08/31 11:50:37;;;;;;;6.22;5.57;;;;;;;;;;4918452;29;20221;-85
2021/08/31 11:53:16;;;;;;;7.07;6.38;;;;;;;;;;4918744;29;20643;-84
2021/08/31 11:55:56;;;;;;;6.18;5.60;;;;;;;;;;4891872;29;20234;-84
2021/08/31 11:58:24;;;;;;;7.22;6.57;;;;;;;;;;4895796;29;20713;-84
2021/08/31 12:00:51;;;;;;;5.95;5.40;;;;;;;;;;4899699;29;20207;-85
2021/08/31 12:03:21;;;;;;;6.20;5.60;;;;;;;;;;4900082;29;20227;-84
2021/08/31 12:05:52;;;;;;;6.00;5.50;;;;;;;;;;4899832;29;20275;-85
2021/08/31 12:08:20;;;;;;;6.35;5.75;;;;;;;;;;4899937;29;20314;-85
2021/08/31 12:10:55;;;;;;;6.53;5.93;;;;;;;;;;4900047;29;20217;-85
2021/08/31 12:13:23;;;;;;;6.40;5.80;;;;;;;;;;4898815;29;20579;-84
2021/08/31 12:15:55;;;;;;;5.80;5.30;;;;;;;;;;4899406;29;20226;-84
2021/08/31 12:18:27;;;;;;;5.63;5.13;;;;;;;;;;4895205;29;20664;-85
2021/08/31 12:20:57;;;;;;;5.78;5.28;;;;;;;;;;4895508;29;20278;-84
2021/08/31 12:23:32;;;;;;;6.18;5.57;;;;;;;;;;4887126;29;20215;-85
2021/08/31 12:26:01;;;;;;;6.13;5.53;;;;;;;;;;4881034;29;20200;-85
2021/08/31 12:28:28;;;;;;;5.10;4.70;;;;;;;;;;4908800;29;20221;-84
2021/08/31 12:30:55;;;;;;;6.53;5.93;;;;;;;;;;4919013;29;20602;-84
2021/08/31 12:33:25;;;;;;;6.75;6.03;;;;;;;;;;4919443;29;20324;-85
2021/08/31 12:36:03;;;;;;;6.32;5.72;;;;;;;;;;4918972;29;20192;-85
2021/08/31 12:38:34;;;;;;;6.85;6.25;;;;;;;;;;4905826;29;20736;-84
2021/08/31 12:41:09;;;;;;;5.68;5.28;;;;;;;;;;4894676;29;20632;-84
2021/08/31 12:43:49;;;;;;;7.03;6.43;;;;;;;;;;4895942;29;20195;-84
2021/08/31 12:46:22;;;;;;;7.68;6.18;;;;;;;;;;4890149;29;20203;-84
2021/08/31 12:48:50;;;;;;;7.18;6.00;;;;;;;;;;4894690;29;20278;-84
2021/08/31 12:51:32;;;;;;;6.40;5.88;;;;;;;;;;4891741;29;20600;-84
2021/08/31 12:54:00;;;;;;;5.43;4.93;;;;;;;;;;4890628;29;20207;-85
2021/08/31 12:56:30;;;;;;;6.38;5.88;;;;;;;;;;4898278;29;20203;-84
2021/08/31 12:59:06;;;;;;;5.55;5.15;;;;;;;;;;4891024;29;20199;-84
2021/08/31 13:01:51;;;;;;;5.60;5.07;;;;;;;;;;4892785;29;20281;-85
2021/08/31 13:04:19;;;;;;;5.68;5.18;;;;;;;;;;4888830;29;20191;-83
2021/08/31 13:06:53;;;;;;;5.45;4.95;;;;;;;;;;4890865;29;20224;-84
2021/08/31 13:09:21;;;;;;;4.97;4.47;;;;;;;;;;4889309;29;20188;-85
2021/08/31 13:11:52;;;;;;;5.10;4.45;;;;;;;;;;4899436;29;20211;-85
2021/08/31 13:14:24;;;;;;;5.35;4.82;;;;;;;;;;4896087;29;20211;-84
2021/08/31 13:16:53;;;;;;;5.30;4.90;;;;;;;;;;4896206;29;20231;-85
2021/08/31 13:19:21;;;;;;;5.25;4.85;;;;;;;;;;4892979;29;20210;-86
2021/08/31 13:21:51;;;;;;;6.20;5.60;;;;;;;;;;4891112;29;20196;-87
2021/08/31 13:24:19;;;;;;;5.45;4.95;;;;;;;;;;4892610;29;20198;-86
2021/08/31 13:26:50;;;;;;;6.45;5.85;;;;;;;;;;4891258;29;20238;-85
2021/08/31 13:29:18;;;;;;;4.75;4.35;;;;;;;;;;4892315;29;20195;-85
2021/08/31 13:31:46;;;;;;;5.18;4.75;;;;;;;;;;4888828;29;20215;-84
2021/08/31 13:34:14;;;;;;;5.95;4.63;;;;;;;;;;4893493;29;20183;-84
2021/08/31 13:36:44;;;;;;;4.60;4.20;;;;;;;;;;4890475;29;20198;-86
2021/08/31 13:39:13;;;;;;;4.53;4.13;;;;;;;;;;4894270;29;20581;-86
2021/08/31 13:41:42;;;;;;;4.65;4.25;;;;;;;;;;4897945;29;20199;-85
2021/08/31 13:44:11;;;;;;;4.82;4.43;;;;;;;;;;4897861;29;20238;-86
2021/08/31 13:46:40;;;;;;;5.18;4.68;;;;;;;;;;4897569;29;20183;-86
2021/08/31 13:49:09;;;;;;;5.45;4.93;;;;;;;;;;4897225;29;20187;-85
2021/08/31 13:51:36;;;;;;;5.22;4.82;;;;;;;;;;4897751;29;20615;-86
2021/08/31 13:54:04;;;;;;;4.50;4.20;;;;;;;;;;4897437;29;20268;-85
2021/08/31 13:56:32;;;;;;;3.80;3.50;;;;;;;;;;4894281;29;20290;-86
2021/08/31 13:58:59;;;;;;;5.07;4.68;;;;;;;;;;4893933;29;20207;-87
2021/08/31 14:01:28;;;;;;;4.80;4.40;;;;;;;;;;4901708;29;20195;-86
2021/08/31 14:03:56;;;;;;;4.13;3.83;;;;;;;;;;4883347;29;20489;-86
2021/08/31 14:06:23;;;;;;;3.72;3.42;;;;;;;;;;4886704;29;20598;-86
2021/08/31 14:08:51;;;;;;;3.75;3.45;;;;;;;;;;4892639;29;20735;-86
2021/08/31 14:11:18;;;;;;;4.10;3.78;;;;;;;;;;4896673;29;20725;-86
2021/08/31 14:13:47;;;;;;;3.83;3.53;;;;;;;;;;4898616;29;20678;-87
2021/08/31 14:16:14;;;;;;;3.97;3.67;;;;;;;;;;4903626;29;20266;-85
2021/08/31 14:18:45;;;;;;;5.18;4.78;;;;;;;;;;4915906;29;20499;-86
2021/08/31 14:21:21;;;;;;;4.72;4.28;;;;;;;;;;4902233;29;20203;-86
2021/08/31 14:24:00;;;;;;;3.75;3.45;;;;;;;;;;4901852;29;20654;-86
2021/08/31 14:26:49;;;;;;;4.05;3.75;;;;;;;;;;4902769;29;20737;-86
2021/08/31 14:29:22;;;;;;;4.18;3.78;;;;;;;;;;4902139;29;20650;-88
2021/08/31 14:31:57;;;;;;;3.88;3.58;;;;;;;;;;4913852;29;20225;-86
2021/08/31 14:34:26;;;;;;;4.60;4.20;;;;;;;;;;4921614;29;20731;-85
2021/08/31 14:36:54;;;;;;;4.60;4.20;;;;;;;;;;4884456;29;20228;-86
2021/08/31 14:39:23;;;;;;;4.03;3.72;;;;;;;;;;4895007;29;20589;-86
2021/08/31 14:42:05;;;;;;;4.07;3.78;;;;;;;;;;4902397;29;20203;-87
2021/08/31 14:44:37;;;;;;;4.03;3.72;;;;;;;;;;4904001;29;20203;-85
2021/08/31 14:47:06;;;;;;;4.30;3.92;;;;;;;;;;4922089;29;20635;-86
2021/08/31 14:49:36;;;;;;;3.28;3.08;;;;;;;;;;4921626;29;20551;-86
2021/08/31 14:52:07;;;;;;;3.38;3.13;;;;;;;;;;4919432;29;20217;-86
2021/08/31 14:54:41;;;;;;;4.05;3.75;;;;;;;;;;4903075;29;20206;-85
2021/08/31 14:57:10;;;;;;;3.72;3.45;;;;;;;;;;4902036;29;20727;-86
2021/08/31 14:59:46;;;;;;;3.47;3.22;;;;;;;;;;4908552;29;20191;-86
2021/08/31 15:02:14;;;;;;;3.45;3.15;;;;;;;;;;4921588;29;20669;-86
2021/08/31 15:04:43;;;;;;;3.75;3.45;;;;;;;;;;4920924;29;20250;-86